sensor_id;sensor_type;location;lat;lon;timestamp;P1;durP1;ratioP1;P2;durP2;ratioP2
22955;SDS011;40888;48.148;11.526;2023-02-19T00:00:59;1.47;;;1.30;;
22955;SDS011;40888;48.148;11.526;2023-02-19T00:03:25;2.37;;;1.77;;
22955;SDS011;40888;48.148;11.526;2023-02-19T00:05:52;1.50;;;1.37;;
22955;SDS011;40888;48.148;11.526;2023-02-19T00:08:19;1.37;;;1.27;;
22955;SDS011;40888;48.148;11.526;2023-02-19T00:10:45;4.00;;;1.63;;
22955;SDS011;40888;48.148;11.526;2023-02-19T00:13:11;1.87;;;1.60;;
22955;SDS011;40888;48.148;11.526;2023-02-19T00:15:38;1.37;;;1.27;;
22955;SDS011;40888;48.148;11.526;2023-02-19T00:18:05;1.50;;;1.40;;
22955;SDS011;40888;48.148;11.526;2023-02-19T00:20:31;1.63;;;1.50;;
22955;SDS011;40888;48.148;11.526;2023-02-19T00:22:57;3.40;;;1.70;;
22955;SDS011;40888;48.148;11.526;2023-02-19T00:25:23;1.20;;;1.10;;
22955;SDS011;40888;48.148;11.526;2023-02-19T00:27:49;1.90;;;1.50;;
22955;SDS011;40888;48.148;11.526;2023-02-19T00:30:15;2.67;;;1.70;;
22955;SDS011;40888;48.148;11.526;2023-02-19T00:32:41;1.83;;;1.63;;
22955;SDS011;40888;48.148;11.526;2023-02-19T00:35:07;1.70;;;1.60;;
22955;SDS011;40888;48.148;11.526;2023-02-19T00:37:33;1.40;;;1.30;;
22955;SDS011;40888;48.148;11.526;2023-02-19T00:39:59;2.03;;;1.83;;
22955;SDS011;40888;48.148;11.526;2023-02-19T00:42:25;2.03;;;1.77;;
22955;SDS011;40888;48.148;11.526;2023-02-19T00:44:52;2.00;;;1.70;;
22955;SDS011;40888;48.148;11.526;2023-02-19T00:47:18;1.80;;;1.63;;
22955;SDS011;40888;48.148;11.526;2023-02-19T00:49:44;1.53;;;1.43;;
22955;SDS011;40888;48.148;11.526;2023-02-19T00:52:10;1.67;;;1.53;;
22955;SDS011;40888;48.148;11.526;2023-02-19T00:54:36;1.70;;;1.30;;
22955;SDS011;40888;48.148;11.526;2023-02-19T00:57:02;2.83;;;1.13;;
22955;SDS011;40888;48.148;11.526;2023-02-19T00:59:30;1.63;;;1.53;;
22955;SDS011;40888;48.148;11.526;2023-02-19T01:01:56;1.30;;;1.20;;
22955;SDS011;40888;48.148;11.526;2023-02-19T01:04:22;2.10;;;1.50;;
22955;SDS011;40888;48.148;11.526;2023-02-19T01:06:48;2.13;;;1.80;;
22955;SDS011;40888;48.148;11.526;2023-02-19T01:09:15;1.57;;;1.47;;
22955;SDS011;40888;48.148;11.526;2023-02-19T01:11:41;1.63;;;1.50;;
22955;SDS011;40888;48.148;11.526;2023-02-19T01:14:07;1.70;;;1.60;;
22955;SDS011;40888;48.148;11.526;2023-02-19T01:16:34;2.03;;;1.50;;
22955;SDS011;40888;48.148;11.526;2023-02-19T01:19:00;2.60;;;1.63;;
22955;SDS011;40888;48.148;11.526;2023-02-19T01:21:26;1.50;;;1.40;;
22955;SDS011;40888;48.148;11.526;2023-02-19T01:23:53;2.50;;;1.63;;
22955;SDS011;40888;48.148;11.526;2023-02-19T01:26:21;2.17;;;1.57;;
22955;SDS011;40888;48.148;11.526;2023-02-19T01:28:47;1.63;;;1.53;;
22955;SDS011;40888;48.148;11.526;2023-02-19T01:31:14;2.40;;;1.60;;
22955;SDS011;40888;48.148;11.526;2023-02-19T01:33:48;1.50;;;1.40;;
22955;SDS011;40888;48.148;11.526;2023-02-19T01:36:14;1.87;;;1.63;;
22955;SDS011;40888;48.148;11.526;2023-02-19T01:38:40;1.20;;;1.20;;
22955;SDS011;40888;48.148;11.526;2023-02-19T01:41:07;1.87;;;1.77;;
22955;SDS011;40888;48.148;11.526;2023-02-19T01:43:52;2.87;;;1.60;;
22955;SDS011;40888;48.148;11.526;2023-02-19T01:46:19;2.77;;;1.50;;
22955;SDS011;40888;48.148;11.526;2023-02-19T01:48:45;1.70;;;1.60;;
22955;SDS011;40888;48.148;11.526;2023-02-19T01:51:13;1.53;;;1.30;;
22955;SDS011;40888;48.148;11.526;2023-02-19T01:53:41;2.00;;;1.60;;
22955;SDS011;40888;48.148;11.526;2023-02-19T01:56:08;1.93;;;1.30;;
22955;SDS011;40888;48.148;11.526;2023-02-19T01:58:35;1.90;;;1.50;;
22955;SDS011;40888;48.148;11.526;2023-02-19T02:01:02;2.60;;;1.70;;
22955;SDS011;40888;48.148;11.526;2023-02-19T02:03:29;1.60;;;1.47;;
22955;SDS011;40888;48.148;11.526;2023-02-19T02:06:04;1.90;;;1.47;;
22955;SDS011;40888;48.148;11.526;2023-02-19T02:08:32;1.80;;;1.70;;
22955;SDS011;40888;48.148;11.526;2023-02-19T02:11:17;2.70;;;1.73;;
22955;SDS011;40888;48.148;11.526;2023-02-19T02:13:43;1.73;;;1.63;;
22955;SDS011;40888;48.148;11.526;2023-02-19T02:26:15;2.27;;;2.07;;
22955;SDS011;40888;48.148;11.526;2023-02-19T02:31:29;2.73;;;2.07;;
22955;SDS011;40888;48.148;11.526;2023-02-19T02:34:00;2.30;;;2.10;;
22955;SDS011;40888;48.148;11.526;2023-02-19T02:36:33;2.50;;;2.30;;
22955;SDS011;40888;48.148;11.526;2023-02-19T02:39:01;2.30;;;2.20;;
22955;SDS011;40888;48.148;11.526;2023-02-19T02:41:29;2.23;;;2.13;;
22955;SDS011;40888;48.148;11.526;2023-02-19T02:43:56;2.47;;;2.27;;
22955;SDS011;40888;48.148;11.526;2023-02-19T02:46:34;3.00;;;2.70;;
22955;SDS011;40888;48.148;11.526;2023-02-19T02:49:04;3.17;;;2.70;;
22955;SDS011;40888;48.148;11.526;2023-02-19T02:51:32;3.00;;;2.70;;
22955;SDS011;40888;48.148;11.526;2023-02-19T02:56:50;2.80;;;2.60;;
22955;SDS011;40888;48.148;11.526;2023-02-19T02:59:18;3.10;;;2.80;;
22955;SDS011;40888;48.148;11.526;2023-02-19T03:02:04;3.70;;;2.80;;
22955;SDS011;40888;48.148;11.526;2023-02-19T03:08:00;2.97;;;2.67;;
22955;SDS011;40888;48.148;11.526;2023-02-19T03:10:26;3.23;;;3.00;;
22955;SDS011;40888;48.148;11.526;2023-02-19T03:12:53;3.67;;;3.37;;
22955;SDS011;40888;48.148;11.526;2023-02-19T03:15:51;3.70;;;3.10;;
22955;SDS011;40888;48.148;11.526;2023-02-19T03:18:38;4.60;;;3.60;;
22955;SDS011;40888;48.148;11.526;2023-02-19T03:21:25;3.40;;;3.10;;
22955;SDS011;40888;48.148;11.526;2023-02-19T03:23:53;3.77;;;3.40;;
22955;SDS011;40888;48.148;11.526;2023-02-19T03:26:39;3.47;;;3.27;;
22955;SDS011;40888;48.148;11.526;2023-02-19T03:29:06;3.40;;;3.10;;
22955;SDS011;40888;48.148;11.526;2023-02-19T03:31:48;4.43;;;3.00;;
22955;SDS011;40888;48.148;11.526;2023-02-19T03:34:19;3.53;;;3.17;;
22955;SDS011;40888;48.148;11.526;2023-02-19T03:36:47;3.57;;;3.00;;
22955;SDS011;40888;48.148;11.526;2023-02-19T03:39:16;3.57;;;3.23;;
22955;SDS011;40888;48.148;11.526;2023-02-19T03:46:56;3.87;;;3.57;;
22955;SDS011;40888;48.148;11.526;2023-02-19T03:52:16;4.37;;;3.77;;
22955;SDS011;40888;48.148;11.526;2023-02-19T03:54:49;4.77;;;4.20;;
22955;SDS011;40888;48.148;11.526;2023-02-19T03:59:46;4.33;;;3.70;;
22955;SDS011;40888;48.148;11.526;2023-02-19T04:02:27;3.87;;;3.10;;
22955;SDS011;40888;48.148;11.526;2023-02-19T04:05:15;5.77;;;3.83;;
22955;SDS011;40888;48.148;11.526;2023-02-19T04:07:41;4.63;;;3.53;;
22955;SDS011;40888;48.148;11.526;2023-02-19T04:10:09;4.03;;;3.70;;
22955;SDS011;40888;48.148;11.526;2023-02-19T04:12:37;5.73;;;3.90;;
22955;SDS011;40888;48.148;11.526;2023-02-19T04:15:05;3.77;;;3.47;;
22955;SDS011;40888;48.148;11.526;2023-02-19T04:17:34;4.33;;;3.50;;
22955;SDS011;40888;48.148;11.526;2023-02-19T04:20:02;4.00;;;3.70;;
22955;SDS011;40888;48.148;11.526;2023-02-19T04:22:30;3.50;;;3.20;;
22955;SDS011;40888;48.148;11.526;2023-02-19T04:24:56;3.57;;;3.27;;
22955;SDS011;40888;48.148;11.526;2023-02-19T04:27:22;3.63;;;2.80;;
22955;SDS011;40888;48.148;11.526;2023-02-19T04:29:48;3.40;;;3.10;;
22955;SDS011;40888;48.148;11.526;2023-02-19T04:32:14;3.37;;;3.07;;
22955;SDS011;40888;48.148;11.526;2023-02-19T04:34:40;3.47;;;3.17;;
22955;SDS011;40888;48.148;11.526;2023-02-19T04:37:07;2.80;;;2.60;;
22955;SDS011;40888;48.148;11.526;2023-02-19T04:39:33;3.30;;;2.87;;
22955;SDS011;40888;48.148;11.526;2023-02-19T04:41:59;2.90;;;2.63;;
22955;SDS011;40888;48.148;11.526;2023-02-19T04:44:25;2.90;;;2.70;;
22955;SDS011;40888;48.148;11.526;2023-02-19T04:46:51;3.50;;;3.00;;
22955;SDS011;40888;48.148;11.526;2023-02-19T04:49:18;2.97;;;2.77;;
22955;SDS011;40888;48.148;11.526;2023-02-19T04:51:44;2.80;;;2.60;;
22955;SDS011;40888;48.148;11.526;2023-02-19T04:54:10;2.63;;;2.30;;
22955;SDS011;40888;48.148;11.526;2023-02-19T04:56:36;2.67;;;2.47;;
22955;SDS011;40888;48.148;11.526;2023-02-19T04:59:02;2.60;;;2.33;;
22955;SDS011;40888;48.148;11.526;2023-02-19T05:01:28;2.73;;;2.53;;
22955;SDS011;40888;48.148;11.526;2023-02-19T05:03:54;2.87;;;2.57;;
22955;SDS011;40888;48.148;11.526;2023-02-19T05:06:20;2.73;;;2.53;;
22955;SDS011;40888;48.148;11.526;2023-02-19T05:08:46;2.60;;;2.40;;
22955;SDS011;40888;48.148;11.526;2023-02-19T05:11:13;2.77;;;2.50;;
22955;SDS011;40888;48.148;11.526;2023-02-19T05:13:39;2.60;;;2.37;;
22955;SDS011;40888;48.148;11.526;2023-02-19T05:16:09;2.57;;;2.37;;
22955;SDS011;40888;48.148;11.526;2023-02-19T05:18:38;3.00;;;2.80;;
22955;SDS011;40888;48.148;11.526;2023-02-19T05:21:04;2.50;;;2.30;;
22955;SDS011;40888;48.148;11.526;2023-02-19T05:23:30;2.27;;;2.13;;
22955;SDS011;40888;48.148;11.526;2023-02-19T05:25:57;3.17;;;2.30;;
22955;SDS011;40888;48.148;11.526;2023-02-19T05:28:23;2.47;;;2.27;;
22955;SDS011;40888;48.148;11.526;2023-02-19T05:30:53;2.37;;;2.20;;
22955;SDS011;40888;48.148;11.526;2023-02-19T05:33:20;2.80;;;2.60;;
22955;SDS011;40888;48.148;11.526;2023-02-19T05:35:48;3.37;;;2.30;;
22955;SDS011;40888;48.148;11.526;2023-02-19T05:38:15;2.30;;;2.10;;
22955;SDS011;40888;48.148;11.526;2023-02-19T05:40:41;2.80;;;2.07;;
22955;SDS011;40888;48.148;11.526;2023-02-19T05:43:08;2.70;;;2.27;;
22955;SDS011;40888;48.148;11.526;2023-02-19T05:45:34;2.30;;;2.20;;
22955;SDS011;40888;48.148;11.526;2023-02-19T05:48:00;2.30;;;2.20;;
22955;SDS011;40888;48.148;11.526;2023-02-19T05:50:27;2.33;;;2.13;;
22955;SDS011;40888;48.148;11.526;2023-02-19T05:52:53;2.17;;;1.93;;
22955;SDS011;40888;48.148;11.526;2023-02-19T05:55:19;2.97;;;2.40;;
22955;SDS011;40888;48.148;11.526;2023-02-19T05:57:46;2.50;;;2.30;;
22955;SDS011;40888;48.148;11.526;2023-02-19T06:00:14;2.53;;;2.07;;
22955;SDS011;40888;48.148;11.526;2023-02-19T06:02:40;2.33;;;2.13;;
22955;SDS011;40888;48.148;11.526;2023-02-19T06:05:06;2.33;;;2.13;;
22955;SDS011;40888;48.148;11.526;2023-02-19T06:07:32;2.30;;;2.10;;
22955;SDS011;40888;48.148;11.526;2023-02-19T06:09:59;2.37;;;2.17;;
22955;SDS011;40888;48.148;11.526;2023-02-19T06:12:25;2.60;;;2.40;;
22955;SDS011;40888;48.148;11.526;2023-02-19T06:14:51;2.77;;;2.13;;
22955;SDS011;40888;48.148;11.526;2023-02-19T06:17:17;2.30;;;2.10;;
22955;SDS011;40888;48.148;11.526;2023-02-19T06:19:43;2.63;;;1.80;;
22955;SDS011;40888;48.148;11.526;2023-02-19T06:22:09;2.30;;;2.10;;
22955;SDS011;40888;48.148;11.526;2023-02-19T06:24:35;2.30;;;2.10;;
22955;SDS011;40888;48.148;11.526;2023-02-19T06:27:05;2.20;;;2.10;;
22955;SDS011;40888;48.148;11.526;2023-02-19T06:29:31;2.20;;;2.00;;
22955;SDS011;40888;48.148;11.526;2023-02-19T06:31:58;2.33;;;2.13;;
22955;SDS011;40888;48.148;11.526;2023-02-19T06:34:24;2.13;;;2.03;;
22955;SDS011;40888;48.148;11.526;2023-02-19T06:36:50;2.03;;;1.83;;
22955;SDS011;40888;48.148;11.526;2023-02-19T06:39:16;2.40;;;2.20;;
22955;SDS011;40888;48.148;11.526;2023-02-19T06:41:42;1.90;;;1.67;;
22955;SDS011;40888;48.148;11.526;2023-02-19T06:44:08;2.43;;;2.20;;
22955;SDS011;40888;48.148;11.526;2023-02-19T06:46:35;2.27;;;2.10;;
22955;SDS011;40888;48.148;11.526;2023-02-19T06:49:03;2.70;;;2.50;;
22955;SDS011;40888;48.148;11.526;2023-02-19T06:51:29;2.70;;;2.03;;
22955;SDS011;40888;48.148;11.526;2023-02-19T06:53:57;2.53;;;2.33;;
22955;SDS011;40888;48.148;11.526;2023-02-19T06:56:33;2.53;;;2.33;;
22955;SDS011;40888;48.148;11.526;2023-02-19T06:59:01;2.53;;;2.33;;
22955;SDS011;40888;48.148;11.526;2023-02-19T07:01:29;2.20;;;2.10;;
22955;SDS011;40888;48.148;11.526;2023-02-19T07:03:55;2.83;;;2.17;;
22955;SDS011;40888;48.148;11.526;2023-02-19T07:06:22;2.17;;;2.00;;
22955;SDS011;40888;48.148;11.526;2023-02-19T07:08:49;2.40;;;2.30;;
22955;SDS011;40888;48.148;11.526;2023-02-19T07:11:15;3.10;;;2.43;;
22955;SDS011;40888;48.148;11.526;2023-02-19T07:13:42;2.17;;;2.00;;
22955;SDS011;40888;48.148;11.526;2023-02-19T07:16:09;2.50;;;2.30;;
22955;SDS011;40888;48.148;11.526;2023-02-19T07:18:36;2.77;;;2.10;;
22955;SDS011;40888;48.148;11.526;2023-02-19T07:23:29;2.50;;;2.30;;
22955;SDS011;40888;48.148;11.526;2023-02-19T07:25:55;2.50;;;2.30;;
22955;SDS011;40888;48.148;11.526;2023-02-19T07:28:21;2.50;;;2.40;;
22955;SDS011;40888;48.148;11.526;2023-02-19T07:30:47;2.80;;;2.60;;
22955;SDS011;40888;48.148;11.526;2023-02-19T07:33:13;2.80;;;2.60;;
22955;SDS011;40888;48.148;11.526;2023-02-19T07:35:46;2.47;;;2.27;;
22955;SDS011;40888;48.148;11.526;2023-02-19T07:38:19;2.70;;;2.50;;
22955;SDS011;40888;48.148;11.526;2023-02-19T07:40:55;2.90;;;2.40;;
22955;SDS011;40888;48.148;11.526;2023-02-19T07:43:22;2.57;;;2.40;;
22955;SDS011;40888;48.148;11.526;2023-02-19T07:45:48;3.10;;;2.87;;
22955;SDS011;40888;48.148;11.526;2023-02-19T07:48:15;2.80;;;2.60;;
22955;SDS011;40888;48.148;11.526;2023-02-19T07:50:41;2.67;;;2.47;;
22955;SDS011;40888;48.148;11.526;2023-02-19T07:53:07;3.07;;;2.77;;
22955;SDS011;40888;48.148;11.526;2023-02-19T07:55:33;2.67;;;2.47;;
22955;SDS011;40888;48.148;11.526;2023-02-19T07:57:59;2.43;;;2.33;;
22955;SDS011;40888;48.148;11.526;2023-02-19T08:00:26;3.10;;;2.80;;
22955;SDS011;40888;48.148;11.526;2023-02-19T08:02:52;2.70;;;2.50;;
22955;SDS011;40888;48.148;11.526;2023-02-19T08:05:29;3.00;;;2.70;;
22955;SDS011;40888;48.148;11.526;2023-02-19T08:07:56;2.90;;;2.67;;
22955;SDS011;40888;48.148;11.526;2023-02-19T08:10:22;2.63;;;2.43;;
22955;SDS011;40888;48.148;11.526;2023-02-19T08:13:10;2.80;;;2.30;;
22955;SDS011;40888;48.148;11.526;2023-02-19T08:18:29;2.70;;;2.50;;
22955;SDS011;40888;48.148;11.526;2023-02-19T08:20:56;2.60;;;2.40;;
22955;SDS011;40888;48.148;11.526;2023-02-19T08:23:22;2.90;;;2.60;;
22955;SDS011;40888;48.148;11.526;2023-02-19T08:25:49;2.57;;;2.40;;
22955;SDS011;40888;48.148;11.526;2023-02-19T08:28:16;2.33;;;2.13;;
22955;SDS011;40888;48.148;11.526;2023-02-19T08:30:43;3.20;;;2.07;;
22955;SDS011;40888;48.148;11.526;2023-02-19T08:33:10;2.77;;;2.20;;
22955;SDS011;40888;48.148;11.526;2023-02-19T08:35:37;1.80;;;1.70;;
22955;SDS011;40888;48.148;11.526;2023-02-19T08:38:04;2.03;;;1.70;;
22955;SDS011;40888;48.148;11.526;2023-02-19T08:40:31;1.93;;;1.83;;
22955;SDS011;40888;48.148;11.526;2023-02-19T08:43:01;1.77;;;1.67;;
22955;SDS011;40888;48.148;11.526;2023-02-19T08:45:27;1.70;;;1.60;;
22955;SDS011;40888;48.148;11.526;2023-02-19T08:47:53;1.83;;;1.73;;
22955;SDS011;40888;48.148;11.526;2023-02-19T08:50:20;2.07;;;1.80;;
22955;SDS011;40888;48.148;11.526;2023-02-19T08:52:46;2.27;;;2.17;;
22955;SDS011;40888;48.148;11.526;2023-02-19T08:55:12;2.50;;;2.30;;
22955;SDS011;40888;48.148;11.526;2023-02-19T08:57:38;2.30;;;2.10;;
22955;SDS011;40888;48.148;11.526;2023-02-19T09:00:05;2.20;;;2.10;;
22955;SDS011;40888;48.148;11.526;2023-02-19T09:02:31;2.47;;;2.27;;
22955;SDS011;40888;48.148;11.526;2023-02-19T09:04:57;2.07;;;1.90;;
22955;SDS011;40888;48.148;11.526;2023-02-19T09:07:24;2.23;;;2.10;;
22955;SDS011;40888;48.148;11.526;2023-02-19T09:09:50;2.00;;;1.80;;
22955;SDS011;40888;48.148;11.526;2023-02-19T09:12:16;1.83;;;1.73;;
22955;SDS011;40888;48.148;11.526;2023-02-19T09:14:42;1.77;;;1.67;;
22955;SDS011;40888;48.148;11.526;2023-02-19T09:17:08;1.57;;;1.47;;
22955;SDS011;40888;48.148;11.526;2023-02-19T09:19:34;2.47;;;1.80;;
22955;SDS011;40888;48.148;11.526;2023-02-19T09:22:01;1.67;;;1.30;;
22955;SDS011;40888;48.148;11.526;2023-02-19T09:24:27;1.63;;;1.53;;
22955;SDS011;40888;48.148;11.526;2023-02-19T09:26:53;1.60;;;1.47;;
22955;SDS011;40888;48.148;11.526;2023-02-19T09:29:20;2.43;;;1.70;;
22955;SDS011;40888;48.148;11.526;2023-02-19T09:31:47;1.50;;;1.37;;
22955;SDS011;40888;48.148;11.526;2023-02-19T09:34:13;0.90;;;0.90;;
22955;SDS011;40888;48.148;11.526;2023-02-19T09:36:39;1.20;;;1.10;;
22955;SDS011;40888;48.148;11.526;2023-02-19T09:39:06;2.40;;;1.00;;
22955;SDS011;40888;48.148;11.526;2023-02-19T09:41:33;0.77;;;0.60;;
22955;SDS011;40888;48.148;11.526;2023-02-19T09:44:01;0.20;;;0.20;;
22955;SDS011;40888;48.148;11.526;2023-02-19T09:48:55;0.30;;;0.30;;
22955;SDS011;40888;48.148;11.526;2023-02-19T09:51:22;0.40;;;0.40;;
22955;SDS011;40888;48.148;11.526;2023-02-19T09:53:49;0.30;;;0.30;;
22955;SDS011;40888;48.148;11.526;2023-02-19T09:56:16;0.77;;;0.50;;
22955;SDS011;40888;48.148;11.526;2023-02-19T09:58:47;0.40;;;0.40;;
22955;SDS011;40888;48.148;11.526;2023-02-19T10:01:13;0.40;;;0.37;;
22955;SDS011;40888;48.148;11.526;2023-02-19T10:03:42;0.40;;;0.40;;
22955;SDS011;40888;48.148;11.526;2023-02-19T10:06:20;0.57;;;0.40;;
22955;SDS011;40888;48.148;11.526;2023-02-19T10:08:48;0.50;;;0.50;;
22955;SDS011;40888;48.148;11.526;2023-02-19T10:11:15;0.60;;;0.60;;
22955;SDS011;40888;48.148;11.526;2023-02-19T10:13:43;0.40;;;0.40;;
22955;SDS011;40888;48.148;11.526;2023-02-19T10:16:11;0.30;;;0.30;;
22955;SDS011;40888;48.148;11.526;2023-02-19T10:18:41;0.50;;;0.40;;
22955;SDS011;40888;48.148;11.526;2023-02-19T10:21:09;0.57;;;0.50;;
22955;SDS011;40888;48.148;11.526;2023-02-19T10:23:37;0.60;;;0.40;;
22955;SDS011;40888;48.148;11.526;2023-02-19T10:26:04;0.33;;;0.33;;
22955;SDS011;40888;48.148;11.526;2023-02-19T10:28:32;1.80;;;0.40;;
22955;SDS011;40888;48.148;11.526;2023-02-19T10:31:00;0.40;;;0.40;;
22955;SDS011;40888;48.148;11.526;2023-02-19T10:33:26;1.77;;;0.63;;
22955;SDS011;40888;48.148;11.526;2023-02-19T10:36:00;0.40;;;0.40;;
22955;SDS011;40888;48.148;11.526;2023-02-19T10:38:28;1.70;;;0.40;;
22955;SDS011;40888;48.148;11.526;2023-02-19T10:40:57;0.40;;;0.40;;
22955;SDS011;40888;48.148;11.526;2023-02-19T10:43:24;0.37;;;0.37;;
22955;SDS011;40888;48.148;11.526;2023-02-19T10:45:57;0.50;;;0.50;;
22955;SDS011;40888;48.148;11.526;2023-02-19T10:48:28;0.30;;;0.30;;
22955;SDS011;40888;48.148;11.526;2023-02-19T10:50:58;1.37;;;0.40;;
22955;SDS011;40888;48.148;11.526;2023-02-19T10:53:42;3.93;;;0.53;;
22955;SDS011;40888;48.148;11.526;2023-02-19T10:56:13;0.80;;;0.27;;
22955;SDS011;40888;48.148;11.526;2023-02-19T10:58:40;0.40;;;0.40;;
22955;SDS011;40888;48.148;11.526;2023-02-19T11:01:09;0.77;;;0.57;;
22955;SDS011;40888;48.148;11.526;2023-02-19T11:03:36;0.90;;;0.50;;
22955;SDS011;40888;48.148;11.526;2023-02-19T11:06:03;1.17;;;0.40;;
22955;SDS011;40888;48.148;11.526;2023-02-19T11:08:43;0.80;;;0.30;;
22955;SDS011;40888;48.148;11.526;2023-02-19T11:13:56;0.30;;;0.30;;
22955;SDS011;40888;48.148;11.526;2023-02-19T11:16:23;0.30;;;0.30;;
22955;SDS011;40888;48.148;11.526;2023-02-19T11:18:53;1.50;;;0.30;;
22955;SDS011;40888;48.148;11.526;2023-02-19T11:21:25;0.43;;;0.30;;
22955;SDS011;40888;48.148;11.526;2023-02-19T11:23:52;0.20;;;0.20;;
22955;SDS011;40888;48.148;11.526;2023-02-19T11:26:21;0.30;;;0.20;;
22955;SDS011;40888;48.148;11.526;2023-02-19T11:28:54;0.20;;;0.20;;
22955;SDS011;40888;48.148;11.526;2023-02-19T11:31:23;0.30;;;0.30;;
22955;SDS011;40888;48.148;11.526;2023-02-19T11:33:53;0.40;;;0.40;;
22955;SDS011;40888;48.148;11.526;2023-02-19T11:38:46;1.10;;;0.40;;
22955;SDS011;40888;48.148;11.526;2023-02-19T11:53:55;0.40;;;0.40;;
22955;SDS011;40888;48.148;11.526;2023-02-19T11:56:24;0.50;;;0.30;;
22955;SDS011;40888;48.148;11.526;2023-02-19T11:58:58;0.40;;;0.40;;
22955;SDS011;40888;48.148;11.526;2023-02-19T12:06:50;0.70;;;0.50;;
22955;SDS011;40888;48.148;11.526;2023-02-19T12:10:04;0.77;;;0.60;;
22955;SDS011;40888;48.148;11.526;2023-02-19T12:22:27;0.40;;;0.40;;
22955;SDS011;40888;48.148;11.526;2023-02-19T12:24:58;0.57;;;0.57;;
22955;SDS011;40888;48.148;11.526;2023-02-19T12:27:36;1.90;;;0.60;;
22955;SDS011;40888;48.148;11.526;2023-02-19T12:32:37;2.23;;;2.03;;
22955;SDS011;40888;48.148;11.526;2023-02-19T12:35:23;3.70;;;3.37;;
22955;SDS011;40888;48.148;11.526;2023-02-19T12:40:41;8.93;;;4.67;;
22955;SDS011;40888;48.148;11.526;2023-02-19T12:43:11;0.97;;;0.60;;
22955;SDS011;40888;48.148;11.526;2023-02-19T12:45:43;1.30;;;0.83;;
22955;SDS011;40888;48.148;11.526;2023-02-19T12:50:36;1.37;;;1.10;;
22955;SDS011;40888;48.148;11.526;2023-02-19T12:53:11;1.43;;;1.30;;
22955;SDS011;40888;48.148;11.526;2023-02-19T12:55:38;0.60;;;0.60;;
22955;SDS011;40888;48.148;11.526;2023-02-19T12:58:08;1.50;;;0.50;;
22955;SDS011;40888;48.148;11.526;2023-02-19T13:00:40;0.50;;;0.50;;
22955;SDS011;40888;48.148;11.526;2023-02-19T13:08:40;0.50;;;0.40;;
22955;SDS011;40888;48.148;11.526;2023-02-19T13:11:09;1.40;;;0.70;;
22955;SDS011;40888;48.148;11.526;2023-02-19T13:13:46;2.80;;;0.70;;
22955;SDS011;40888;48.148;11.526;2023-02-19T13:16:14;1.03;;;0.50;;
22955;SDS011;40888;48.148;11.526;2023-02-19T13:18:43;2.63;;;0.60;;
22955;SDS011;40888;48.148;11.526;2023-02-19T13:21:10;0.80;;;0.40;;
22955;SDS011;40888;48.148;11.526;2023-02-19T13:23:38;0.50;;;0.50;;
22955;SDS011;40888;48.148;11.526;2023-02-19T13:29:15;0.60;;;0.60;;
22955;SDS011;40888;48.148;11.526;2023-02-19T13:36:52;0.60;;;0.60;;
22955;SDS011;40888;48.148;11.526;2023-02-19T13:39:18;0.30;;;0.30;;
22955;SDS011;40888;48.148;11.526;2023-02-19T13:41:49;1.03;;;0.50;;
22955;SDS011;40888;48.148;11.526;2023-02-19T13:44:17;0.50;;;0.50;;
22955;SDS011;40888;48.148;11.526;2023-02-19T13:46:45;0.20;;;0.20;;
22955;SDS011;40888;48.148;11.526;2023-02-19T13:54:30;0.20;;;0.20;;
22955;SDS011;40888;48.148;11.526;2023-02-19T13:59:42;0.30;;;0.30;;
22955;SDS011;40888;48.148;11.526;2023-02-19T14:05:04;0.50;;;0.50;;
22955;SDS011;40888;48.148;11.526;2023-02-19T14:10:10;0.50;;;0.50;;
22955;SDS011;40888;48.148;11.526;2023-02-19T14:12:36;1.27;;;0.63;;
22955;SDS011;40888;48.148;11.526;2023-02-19T14:18:00;1.70;;;0.60;;
22955;SDS011;40888;48.148;11.526;2023-02-19T14:23:00;1.33;;;0.57;;
22955;SDS011;40888;48.148;11.526;2023-02-19T14:28:00;2.10;;;0.80;;
22955;SDS011;40888;48.148;11.526;2023-02-19T14:30:27;0.73;;;0.70;;
22955;SDS011;40888;48.148;11.526;2023-02-19T14:32:53;1.30;;;0.73;;
22955;SDS011;40888;48.148;11.526;2023-02-19T14:35:21;1.17;;;0.60;;
22955;SDS011;40888;48.148;11.526;2023-02-19T14:37:48;0.60;;;0.60;;
22955;SDS011;40888;48.148;11.526;2023-02-19T14:40:30;0.80;;;0.77;;
22955;SDS011;40888;48.148;11.526;2023-02-19T14:42:58;2.30;;;1.03;;
22955;SDS011;40888;48.148;11.526;2023-02-19T14:45:25;1.07;;;0.53;;
22955;SDS011;40888;48.148;11.526;2023-02-19T14:47:52;2.23;;;0.70;;
22955;SDS011;40888;48.148;11.526;2023-02-19T14:50:20;0.70;;;0.70;;
22955;SDS011;40888;48.148;11.526;2023-02-19T14:52:52;2.73;;;1.07;;
22955;SDS011;40888;48.148;11.526;2023-02-19T14:57:51;1.67;;;0.90;;
22955;SDS011;40888;48.148;11.526;2023-02-19T15:02:47;0.80;;;0.80;;
22955;SDS011;40888;48.148;11.526;2023-02-19T15:07:43;1.80;;;0.83;;
22955;SDS011;40888;48.148;11.526;2023-02-19T15:10:10;1.83;;;0.97;;
22955;SDS011;40888;48.148;11.526;2023-02-19T15:15:14;1.43;;;0.90;;
22955;SDS011;40888;48.148;11.526;2023-02-19T15:17:41;1.63;;;0.80;;
22955;SDS011;40888;48.148;11.526;2023-02-19T15:20:11;0.70;;;0.70;;
22955;SDS011;40888;48.148;11.526;2023-02-19T15:22:41;2.30;;;1.00;;
22955;SDS011;40888;48.148;11.526;2023-02-19T15:25:10;1.90;;;1.20;;
22955;SDS011;40888;48.148;11.526;2023-02-19T15:27:40;2.40;;;1.00;;
22955;SDS011;40888;48.148;11.526;2023-02-19T15:30:15;2.33;;;0.90;;
22955;SDS011;40888;48.148;11.526;2023-02-19T15:32:49;0.70;;;0.70;;
22955;SDS011;40888;48.148;11.526;2023-02-19T15:35:17;1.27;;;0.90;;
22955;SDS011;40888;48.148;11.526;2023-02-19T15:37:43;1.50;;;0.80;;
22955;SDS011;40888;48.148;11.526;2023-02-19T15:40:12;1.40;;;0.90;;
22955;SDS011;40888;48.148;11.526;2023-02-19T15:42:39;1.77;;;0.80;;
22955;SDS011;40888;48.148;11.526;2023-02-19T15:47:53;1.70;;;1.00;;
22955;SDS011;40888;48.148;11.526;2023-02-19T15:52:54;1.77;;;1.13;;
22955;SDS011;40888;48.148;11.526;2023-02-19T15:57:50;1.20;;;0.70;;
22955;SDS011;40888;48.148;11.526;2023-02-19T16:00:19;0.77;;;0.53;;
22955;SDS011;40888;48.148;11.526;2023-02-19T16:02:46;1.27;;;0.93;;
22955;SDS011;40888;48.148;11.526;2023-02-19T16:05:13;1.03;;;0.60;;
22955;SDS011;40888;48.148;11.526;2023-02-19T16:07:42;3.07;;;0.53;;
22955;SDS011;40888;48.148;11.526;2023-02-19T16:10:18;1.00;;;0.73;;
22955;SDS011;40888;48.148;11.526;2023-02-19T16:12:55;1.73;;;1.00;;
22955;SDS011;40888;48.148;11.526;2023-02-19T16:15:21;1.90;;;1.20;;
22955;SDS011;40888;48.148;11.526;2023-02-19T16:17:47;0.70;;;0.67;;
22955;SDS011;40888;48.148;11.526;2023-02-19T16:20:24;1.80;;;1.13;;
22955;SDS011;40888;48.148;11.526;2023-02-19T16:22:55;2.23;;;1.13;;
22955;SDS011;40888;48.148;11.526;2023-02-19T16:27:51;2.80;;;1.30;;
22955;SDS011;40888;48.148;11.526;2023-02-19T16:35:34;1.03;;;1.00;;
22955;SDS011;40888;48.148;11.526;2023-02-19T16:38:01;1.53;;;1.00;;
22955;SDS011;40888;48.148;11.526;2023-02-19T16:45:33;1.03;;;1.03;;
22955;SDS011;40888;48.148;11.526;2023-02-19T16:47:59;2.37;;;1.20;;
22955;SDS011;40888;48.148;11.526;2023-02-19T16:50:25;2.20;;;1.30;;
22955;SDS011;40888;48.148;11.526;2023-02-19T16:52:52;1.70;;;1.07;;
22955;SDS011;40888;48.148;11.526;2023-02-19T16:55:18;0.83;;;0.83;;
22955;SDS011;40888;48.148;11.526;2023-02-19T16:57:44;1.27;;;1.13;;
22955;SDS011;40888;48.148;11.526;2023-02-19T17:00:19;2.30;;;1.30;;
22955;SDS011;40888;48.148;11.526;2023-02-19T17:02:46;1.07;;;1.07;;
22955;SDS011;40888;48.148;11.526;2023-02-19T17:05:13;2.10;;;1.20;;